Time;durP1;ratioP1;P1;durP2;ratioP2;P2;SDS_P1;SDS_P2;PMS_P1;PMS_P2;Temp;Humidity;BMP_temperature;BMP_pressure;BME280_temperature;BME280_humidity;BME280_pressure;Samples;Min_cycle;Max_cycle;Signal;HPM_P1;HPM_P2
2020/12/14 00:01:05;;;;;;;1.20;1.07;;;5.90;99.90;;;;;;4965616;28;20239;-93
2020/12/14 00:03:33;;;;;;;2.77;1.43;;;5.90;99.90;;;;;;4987803;28;20226;-92
2020/12/14 00:05:59;;;;;;;1.60;0.67;;;5.90;99.90;;;;;;4983735;28;20195;-93
2020/12/14 00:08:27;;;;;;;3.17;1.67;;;5.80;99.90;;;;;;4966159;28;20307;-94
2020/12/14 00:10:53;;;;;;;0.53;0.53;;;5.80;99.90;;;;;;4989846;28;20310;-92
2020/12/14 00:13:19;;;;;;;1.10;0.60;;;5.80;99.90;;;;;;4962376;28;20217;-93
2020/12/14 00:15:47;;;;;;;1.07;0.97;;;5.80;99.90;;;;;;4950158;28;20227;-94
2020/12/14 00:18:15;;;;;;;1.20;1.10;;;5.80;99.90;;;;;;4982001;28;20192;-91
2020/12/14 00:20:41;;;;;;;2.60;1.07;;;5.90;99.90;;;;;;4968207;28;20184;-92
2020/12/14 00:23:07;;;;;;;0.67;0.60;;;5.90;99.90;;;;;;4966009;28;20216;-92
2020/12/14 00:25:33;;;;;;;1.33;1.23;;;5.90;99.90;;;;;;4963488;28;20232;-94
2020/12/14 00:27:59;;;;;;;0.27;0.27;;;5.90;99.90;;;;;;4975062;28;20268;-93
2020/12/14 00:30:27;;;;;;;0.37;0.37;;;5.90;99.90;;;;;;4947739;28;20239;-93
2020/12/14 00:32:55;;;;;;;10.10;1.17;;;5.90;99.90;;;;;;4955813;28;20188;-93
2020/12/14 00:35:21;;;;;;;8.80;1.23;;;5.80;99.90;;;;;;4969184;28;20563;-93
2020/12/14 00:37:47;;;;;;;0.70;0.60;;;5.90;99.90;;;;;;4974843;28;20236;-93
2020/12/14 00:40:13;;;;;;;0.80;0.80;;;5.80;99.90;;;;;;4974060;28;20223;-91
2020/12/14 00:42:45;;;;;;;5.97;1.20;;;5.90;99.90;;;;;;4949118;28;20224;-91
2020/12/14 00:45:13;;;;;;;0.70;0.70;;;5.90;99.90;;;;;;4964520;28;20199;-92
2020/12/14 00:47:39;;;;;;;2.73;1.03;;;5.90;99.90;;;;;;4966783;28;20188;-92
2020/12/14 00:50:04;;;;;;;1.70;1.60;;;5.90;99.90;;;;;;4981652;28;20238;-93
2020/12/14 00:52:30;;;;;;;0.73;0.73;;;5.90;99.90;;;;;;4955250;28;20228;-93
2020/12/14 00:54:56;;;;;;;4.83;1.73;;;5.90;99.90;;;;;;4952357;28;20700;-93
2020/12/14 00:57:22;;;;;;;2.00;1.67;;;6.00;99.90;;;;;;4965316;28;20188;-93
2020/12/14 00:59:48;;;;;;;1.37;0.67;;;6.00;99.90;;;;;;4966640;28;20848;-92
2020/12/14 01:02:14;;;;;;;0.73;0.73;;;6.00;99.90;;;;;;4965024;28;20603;-93
2020/12/14 01:04:40;;;;;;;1.13;1.13;;;6.00;99.90;;;;;;4969460;28;20220;-93
2020/12/14 01:07:05;;;;;;;0.80;0.80;;;6.00;99.90;;;;;;4952914;28;20228;-94
2020/12/14 01:09:33;;;;;;;11.33;2.40;;;6.00;99.90;;;;;;4964791;28;21239;-93
2020/12/14 01:12:02;;;;;;;2.97;2.50;;;6.00;99.90;;;;;;4966712;28;20235;-94
2020/12/14 01:14:28;;;;;;;3.93;1.80;;;6.10;99.90;;;;;;4982210;28;20231;-93
2020/12/14 01:16:54;;;;;;;1.83;1.67;;;6.10;99.90;;;;;;4977101;28;20251;-93
2020/12/14 01:19:22;;;;;;;1.20;1.20;;;6.20;99.90;;;;;;4968765;28;20219;-93
2020/12/14 01:21:48;;;;;;;2.43;2.23;;;6.10;99.90;;;;;;4979344;28;20238;-93
2020/12/14 01:24:13;;;;;;;0.97;0.83;;;6.10;99.90;;;;;;4962712;28;20212;-91
2020/12/14 01:26:39;;;;;;;0.80;0.80;;;6.10;99.90;;;;;;4933807;28;20691;-94
2020/12/14 01:29:05;;;;;;;1.00;0.90;;;6.10;99.90;;;;;;4964450;28;20235;-92
2020/12/14 01:31:31;;;;;;;2.47;1.27;;;6.10;99.90;;;;;;4964342;28;21133;-93
2020/12/14 01:33:56;;;;;;;1.67;1.57;;;6.10;99.90;;;;;;4948704;28;21149;-91
2020/12/14 01:36:22;;;;;;;2.57;1.90;;;6.10;99.90;;;;;;4971407;28;20767;-93
2020/12/14 01:38:48;;;;;;;4.07;1.40;;;6.20;99.90;;;;;;4971980;28;20790;-93
2020/12/14 01:41:14;;;;;;;2.90;1.30;;;6.20;99.90;;;;;;4948432;28;20224;-92
2020/12/14 01:43:40;;;;;;;2.10;1.10;;;6.20;99.90;;;;;;4948622;28;20223;-94
2020/12/14 01:46:06;;;;;;;0.70;0.60;;;6.20;99.90;;;;;;4979502;28;20234;-94
2020/12/14 01:48:31;;;;;;;1.13;1.00;;;6.20;99.90;;;;;;4965920;28;20222;-93
2020/12/14 01:50:57;;;;;;;2.53;2.33;;;6.30;99.90;;;;;;4976402;28;20188;-92
2020/12/14 01:53:27;;;;;;;1.53;1.23;;;6.30;99.90;;;;;;4965034;28;20219;-90
2020/12/14 01:55:54;;;;;;;0.77;0.77;;;6.30;99.90;;;;;;4964098;28;20236;-92
2020/12/14 01:58:21;;;;;;;3.57;2.00;;;6.20;99.90;;;;;;4980608;28;20220;-92
2020/12/14 02:00:46;;;;;;;3.57;1.93;;;6.30;99.90;;;;;;4959295;28;20243;-92
2020/12/14 02:03:12;;;;;;;1.10;1.03;;;6.30;99.90;;;;;;4967176;28;21281;-92
2020/12/14 02:05:41;;;;;;;2.27;1.90;;;6.30;99.90;;;;;;4933742;28;20204;-94
2020/12/14 02:08:08;;;;;;;0.57;0.57;;;6.30;99.90;;;;;;4949395;28;20356;-93
2020/12/14 02:10:35;;;;;;;0.90;0.90;;;6.30;99.90;;;;;;4945190;28;20217;-92
2020/12/14 02:13:01;;;;;;;3.40;1.03;;;6.30;99.90;;;;;;4939164;28;20221;-92
2020/12/14 02:15:32;;;;;;;1.13;1.03;;;6.40;99.90;;;;;;4960379;28;20236;-92
2020/12/14 02:17:58;;;;;;;5.77;2.33;;;6.40;99.90;;;;;;4963248;28;20573;-92
2020/12/14 02:20:24;;;;;;;2.63;2.30;;;6.40;99.90;;;;;;4961579;28;20209;-93
2020/12/14 02:22:50;;;;;;;1.67;1.33;;;6.40;99.90;;;;;;4960491;28;20334;-92
2020/12/14 02:25:16;;;;;;;1.73;1.33;;;6.40;99.90;;;;;;4947546;28;20711;-92
2020/12/14 02:27:43;;;;;;;1.07;1.00;;;6.30;99.90;;;;;;4949010;28;20215;-93
2020/12/14 02:30:10;;;;;;;2.33;0.83;;;6.40;99.90;;;;;;4964952;28;20283;-92
2020/12/14 02:32:36;;;;;;;1.40;1.30;;;6.40;99.90;;;;;;4980529;28;20212;-93
2020/12/14 02:35:04;;;;;;;1.27;1.23;;;6.40;99.90;;;;;;4981114;28;20238;-92
2020/12/14 02:37:33;;;;;;;4.20;2.33;;;6.40;99.90;;;;;;4962597;28;20223;-91
2020/12/14 02:39:59;;;;;;;1.30;1.20;;;6.40;99.90;;;;;;4981292;28;20219;-91
2020/12/14 02:42:25;;;;;;;4.47;1.87;;;6.40;99.90;;;;;;4972261;28;20306;-93
2020/12/14 02:44:54;;;;;;;2.53;2.23;;;6.40;99.90;;;;;;4979522;28;20250;-93
2020/12/14 02:47:20;;;;;;;3.33;0.80;;;6.40;99.90;;;;;;4971223;28;20228;-91
2020/12/14 02:49:46;;;;;;;1.33;1.10;;;6.40;99.90;;;;;;4940107;28;20329;-91
2020/12/14 02:52:13;;;;;;;0.67;0.67;;;6.40;99.90;;;;;;4947264;28;20219;-92
2020/12/14 02:54:41;;;;;;;0.87;0.67;;;6.40;99.90;;;;;;4959818;28;20235;-92
2020/12/14 02:57:07;;;;;;;0.90;0.90;;;6.40;99.90;;;;;;4978643;28;20295;-91
2020/12/14 02:59:33;;;;;;;1.83;1.53;;;6.50;99.90;;;;;;4971602;28;20224;-93
2020/12/14 03:01:59;;;;;;;1.10;1.10;;;6.40;99.90;;;;;;4962976;28;20281;-92
2020/12/14 03:04:25;;;;;;;2.73;0.93;;;6.40;99.90;;;;;;4963321;28;20243;-94
2020/12/14 03:06:51;;;;;;;4.77;1.67;;;6.40;99.90;;;;;;4947777;28;20220;-92
2020/12/14 03:09:19;;;;;;;1.53;1.10;;;6.50;99.90;;;;;;4964134;28;20184;-92
2020/12/14 03:11:46;;;;;;;0.80;0.80;;;6.40;99.90;;;;;;4965210;28;20235;-92
2020/12/14 03:14:12;;;;;;;0.50;0.50;;;6.40;99.90;;;;;;4960891;28;20227;-92
2020/12/14 03:16:47;;;;;;;0.73;0.73;;;6.40;99.90;;;;;;4958539;28;20322;-93
2020/12/14 03:19:13;;;;;;;7.33;0.53;;;6.40;99.90;;;;;;4957722;28;20737;-90
2020/12/14 03:21:39;;;;;;;1.00;1.00;;;6.30;99.90;;;;;;4975814;28;20235;-93
2020/12/14 03:24:06;;;;;;;1.83;1.73;;;6.30;99.90;;;;;;4961472;28;20188;-92
2020/12/14 03:26:32;;;;;;;0.83;0.83;;;6.30;99.90;;;;;;4943993;28;20224;-93
2020/12/14 03:29:00;;;;;;;3.07;2.43;;;6.30;99.90;;;;;;4974921;28;20212;-92
2020/12/14 03:31:26;;;;;;;1.70;1.60;;;6.30;99.90;;;;;;4954718;28;20307;-91
2020/12/14 03:33:54;;;;;;;1.27;1.27;;;6.30;99.90;;;;;;4962156;28;20232;-93
2020/12/14 03:36:20;;;;;;;3.23;1.60;;;6.30;99.90;;;;;;4956634;28;20216;-92
2020/12/14 03:38:54;;;;;;;2.47;1.80;;;6.30;99.90;;;;;;4962039;28;20183;-91
2020/12/14 03:41:21;;;;;;;2.10;1.43;;;6.30;99.90;;;;;;4962652;28;20228;-91
2020/12/14 03:43:48;;;;;;;1.20;1.13;;;6.30;99.90;;;;;;4964224;28;20259;-92
2020/12/14 03:46:23;;;;;;;2.07;1.97;;;6.30;99.90;;;;;;4961771;28;20224;-92
2020/12/14 03:48:53;;;;;;;1.67;1.57;;;6.30;99.90;;;;;;4963086;28;20231;-91
2020/12/14 03:51:21;;;;;;;1.83;1.13;;;6.30;99.90;;;;;;4948713;28;20185;-91
2020/12/14 03:53:50;;;;;;;2.27;0.73;;;6.30;99.90;;;;;;4981972;28;20443;-93
2020/12/14 03:56:20;;;;;;;1.70;1.57;;;6.30;99.90;;;;;;4963982;28;20229;-94
2020/12/14 03:58:49;;;;;;;7.70;2.13;;;6.40;99.90;;;;;;4981492;28;20216;-93
2020/12/14 04:01:23;;;;;;;4.70;1.60;;;6.40;99.90;;;;;;4959413;28;20237;-93
2020/12/14 04:03:50;;;;;;;2.47;1.63;;;6.40;99.90;;;;;;4976544;28;20306;-92
2020/12/14 04:06:19;;;;;;;3.27;1.60;;;6.50;99.90;;;;;;4961731;28;20199;-91
2020/12/14 04:08:48;;;;;;;1.43;1.33;;;6.50;99.90;;;;;;4976351;28;20192;-93
2020/12/14 04:11:14;;;;;;;1.77;1.67;;;6.50;99.90;;;;;;4963604;28;20222;-93
2020/12/14 04:13:42;;;;;;;1.13;0.87;;;6.50;99.90;;;;;;4964623;28;20212;-91
2020/12/14 04:16:09;;;;;;;2.70;1.70;;;6.50;99.90;;;;;;4964935;28;20239;-92
2020/12/14 04:18:35;;;;;;;0.73;0.73;;;6.50;99.90;;;;;;4965824;28;20515;-91
2020/12/14 04:21:02;;;;;;;5.00;4.60;;;6.50;99.90;;;;;;4984576;28;20184;-93
2020/12/14 04:23:28;;;;;;;1.50;1.37;;;6.50;99.90;;;;;;4982053;28;20216;-90
2020/12/14 04:25:53;;;;;;;1.23;1.23;;;6.60;99.90;;;;;;4983553;28;20231;-93
2020/12/14 04:28:19;;;;;;;5.37;1.40;;;6.60;99.90;;;;;;4950947;28;20232;-91
2020/12/14 04:30:45;;;;;;;1.77;1.67;;;6.70;99.90;;;;;;4962462;28;20218;-93
2020/12/14 04:33:11;;;;;;;2.63;1.83;;;6.70;99.90;;;;;;4946581;28;20193;-90
2020/12/14 04:35:37;;;;;;;1.70;1.60;;;6.60;99.90;;;;;;4984104;28;20278;-91
2020/12/14 04:38:03;;;;;;;3.07;2.77;;;6.70;99.90;;;;;;4966424;28;20231;-94
2020/12/14 04:40:29;;;;;;;1.90;1.57;;;6.70;99.90;;;;;;4983286;28;20219;-92
2020/12/14 04:43:00;;;;;;;1.10;0.90;;;6.70;99.90;;;;;;4963009;28;20222;-92
2020/12/14 04:45:26;;;;;;;4.90;1.93;;;6.80;99.90;;;;;;4965888;28;20196;-91
2020/12/14 04:47:59;;;;;;;0.87;0.83;;;6.80;99.90;;;;;;4948110;28;20195;-92
2020/12/14 04:50:26;;;;;;;1.67;0.73;;;6.80;99.90;;;;;;4965342;28;20254;-93
2020/12/14 04:52:53;;;;;;;0.60;0.60;;;6.80;99.90;;;;;;4970547;28;20230;-93
2020/12/14 04:55:20;;;;;;;0.43;0.43;;;6.80;99.90;;;;;;4973395;28;20706;-93
2020/12/14 04:57:50;;;;;;;6.30;1.07;;;6.80;99.90;;;;;;4954462;28;20216;-94
2020/12/14 05:00:17;;;;;;;2.00;1.37;;;6.80;99.90;;;;;;4982890;28;20176;-93
2020/12/14 05:02:43;;;;;;;5.83;2.27;;;6.80;99.90;;;;;;4954692;28;20248;-94
2020/12/14 05:05:13;;;;;;;1.30;1.07;;;6.80;99.90;;;;;;4943879;28;20323;-92
2020/12/14 05:07:44;;;;;;;3.10;2.07;;;6.80;99.90;;;;;;4963075;28;21195;-91
2020/12/14 05:10:13;;;;;;;1.43;1.17;;;6.70;99.90;;;;;;4964055;28;20233;-93
2020/12/14 05:12:45;;;;;;;1.77;1.67;;;6.80;99.90;;;;;;4963133;28;20736;-93
2020/12/14 05:15:28;;;;;;;0.97;0.97;;;6.70;99.90;;;;;;4962213;28;20267;-92
2020/12/14 05:18:15;;;;;;;1.43;1.23;;;6.80;99.90;;;;;;4965297;28;20181;-92
2020/12/14 05:20:42;;;;;;;2.10;1.73;;;6.80;99.90;;;;;;4947794;28;20715;-92
2020/12/14 05:23:10;;;;;;;0.80;0.80;;;6.80;99.90;;;;;;4962076;28;20668;-92
2020/12/14 05:25:37;;;;;;;1.17;1.07;;;6.80;99.90;;;;;;4961867;28;20221;-92
2020/12/14 05:28:11;;;;;;;1.07;0.83;;;6.80;99.90;;;;;;4963032;28;20756;-92
2020/12/14 05:30:45;;;;;;;1.40;0.73;;;6.80;99.90;;;;;;4963361;28;20222;-91
2020/12/14 05:33:14;;;;;;;1.80;1.67;;;6.80;99.90;;;;;;4969351;28;20191;-88
2020/12/14 05:35:42;;;;;;;0.90;0.90;;;6.80;99.90;;;;;;4963353;28;20224;-90
2020/12/14 05:38:20;;;;;;;1.17;0.87;;;6.80;99.90;;;;;;4961947;28;20324;-88
2020/12/14 05:40:57;;;;;;;0.80;0.50;;;6.80;99.90;;;;;;4961572;28;20221;-88
2020/12/14 05:43:25;;;;;;;1.23;1.23;;;6.80;99.90;;;;;;4961520;28;20303;-88
2020/12/14 05:45:51;;;;;;;0.97;0.70;;;6.80;99.90;;;;;;4961446;28;20379;-90
2020/12/14 05:48:35;;;;;;;1.17;0.67;;;6.80;99.90;;;;;;4946113;28;20185;-88
2020/12/14 05:51:06;;;;;;;1.20;1.10;;;6.80;99.90;;;;;;4958120;28;20239;-91
2020/12/14 05:53:34;;;;;;;1.70;1.50;;;6.80;99.90;;;;;;4976334;28;20251;-89
2020/12/14 05:56:02;;;;;;;3.03;1.33;;;6.80;99.90;;;;;;4975914;28;20232;-92
2020/12/14 05:58:30;;;;;;;1.17;1.03;;;6.80;99.90;;;;;;4978615;28;20264;-91
2020/12/14 06:00:56;;;;;;;1.47;1.40;;;6.80;99.90;;;;;;4977761;28;20294;-88
2020/12/14 06:03:24;;;;;;;4.87;0.97;;;6.90;99.90;;;;;;4951600;28;21077;-89
2020/12/14 06:05:57;;;;;;;2.00;1.80;;;6.90;99.90;;;;;;4988789;28;20199;-91
2020/12/14 06:08:45;;;;;;;3.13;2.83;;;6.90;99.90;;;;;;4962118;28;20243;-90
2020/12/14 06:11:17;;;;;;;4.07;2.40;;;6.90;99.90;;;;;;4961505;28;20720;-90
2020/12/14 06:13:53;;;;;;;1.50;1.40;;;6.90;99.90;;;;;;4962073;28;20235;-91
2020/12/14 06:16:20;;;;;;;0.80;0.80;;;6.90;99.90;;;;;;4971281;28;20231;-90
2020/12/14 06:18:46;;;;;;;1.67;1.57;;;7.00;99.90;;;;;;4968183;28;20220;-91
2020/12/14 06:21:37;;;;;;;1.93;1.77;;;7.00;99.90;;;;;;4935852;28;20235;-91
2020/12/14 06:24:06;;;;;;;0.77;0.77;;;7.00;99.90;;;;;;4947823;28;20203;-93
2020/12/14 06:26:35;;;;;;;1.20;1.20;;;7.00;99.90;;;;;;4980420;28;20223;-91
2020/12/14 06:29:01;;;;;;;2.10;1.73;;;7.00;99.90;;;;;;4961085;28;20217;-91
2020/12/14 06:31:34;;;;;;;5.93;2.97;;;7.00;99.90;;;;;;4958203;28;20810;-90
2020/12/14 06:34:03;;;;;;;3.97;1.27;;;7.00;99.90;;;;;;4981048;28;20223;-92
2020/12/14 06:36:37;;;;;;;1.90;1.80;;;7.10;99.90;;;;;;4972422;28;20212;-91
2020/12/14 06:39:03;;;;;;;3.03;1.23;;;7.10;99.90;;;;;;4982628;28;20692;-92
2020/12/14 06:41:30;;;;;;;4.70;2.20;;;7.10;99.90;;;;;;4968584;28;21193;-92
2020/12/14 06:44:07;;;;;;;3.20;1.80;;;7.10;99.90;;;;;;4970994;28;20219;-90
2020/12/14 06:46:35;;;;;;;6.63;1.77;;;7.10;99.90;;;;;;4950006;28;20239;-93
2020/12/14 06:49:02;;;;;;;2.23;2.03;;;7.20;99.90;;;;;;4950239;28;20235;-93
2020/12/14 06:51:51;;;;;;;4.83;3.07;;;7.20;99.90;;;;;;4969784;28;20192;-92
2020/12/14 06:54:42;;;;;;;2.70;2.50;;;7.20;99.90;;;;;;4971851;28;20191;-91
2020/12/14 06:57:10;;;;;;;1.40;1.30;;;7.20;99.90;;;;;;4987556;28;20192;-90
2020/12/14 06:59:36;;;;;;;2.03;1.77;;;7.20;99.90;;;;;;4962545;28;20291;-92
2020/12/14 07:02:04;;;;;;;1.47;1.37;;;7.20;99.90;;;;;;4941843;28;20229;-91
2020/12/14 07:04:31;;;;;;;1.83;1.63;;;7.20;99.90;;;;;;4954494;28;20270;-91
2020/12/14 07:07:06;;;;;;;2.37;1.73;;;7.20;99.90;;;;;;4987736;28;20227;-92
2020/12/14 07:09:34;;;;;;;2.53;2.33;;;7.30;99.90;;;;;;4977705;28;20219;-90
2020/12/14 07:12:09;;;;;;;3.10;1.93;;;7.30;99.90;;;;;;4971413;28;20315;-90
2020/12/14 07:14:45;;;;;;;3.43;2.77;;;7.30;99.90;;;;;;4971122;28;20314;-91
2020/12/14 07:17:29;;;;;;;2.50;1.77;;;7.30;99.90;;;;;;4973250;28;20253;-92
2020/12/14 07:19:56;;;;;;;3.30;2.93;;;7.40;99.90;;;;;;4964267;28;20223;-93
2020/12/14 07:22:46;;;;;;;1.70;1.60;;;7.40;99.90;;;;;;4951589;28;20212;-91
2020/12/14 07:25:21;;;;;;;2.43;2.07;;;7.40;99.90;;;;;;4975738;28;20264;-93
2020/12/14 07:27:47;;;;;;;1.80;1.47;;;7.40;99.90;;;;;;4943447;28;20273;-92
2020/12/14 07:30:13;;;;;;;1.03;0.97;;;7.40;99.90;;;;;;4955496;28;20699;-90
2020/12/14 07:32:39;;;;;;;1.70;1.60;;;7.40;99.90;;;;;;4986539;28;20180;-90
2020/12/14 07:35:07;;;;;;;5.60;3.93;;;7.40;99.90;;;;;;4972136;28;20234;-90
2020/12/14 07:37:35;;;;;;;3.33;2.53;;;7.50;99.90;;;;;;4996643;28;20350;-90
2020/12/14 07:40:02;;;;;;;4.00;2.93;;;7.50;99.90;;;;;;4997083;28;20254;-90
2020/12/14 07:42:32;;;;;;;1.87;1.77;;;7.50;99.90;;;;;;4990922;28;20679;-88
2020/12/14 07:45:19;;;;;;;3.20;2.47;;;7.50;99.90;;;;;;4981809;28;20219;-91
2020/12/14 07:47:48;;;;;;;3.37;1.80;;;7.60;99.90;;;;;;4982317;28;20314;-92
2020/12/14 07:50:18;;;;;;;4.80;2.20;;;7.60;99.90;;;;;;4985429;28;20231;-88
2020/12/14 07:52:46;;;;;;;4.23;2.03;;;7.60;99.90;;;;;;4983219;28;20220;-89
2020/12/14 07:55:14;;;;;;;3.23;2.17;;;7.70;99.90;;;;;;4983280;28;20363;-90
2020/12/14 07:57:45;;;;;;;3.53;2.90;;;7.70;99.90;;;;;;4963506;28;21228;-90
2020/12/14 08:00:22;;;;;;;1.43;1.30;;;7.70;99.90;;;;;;4964189;28;20220;-90
2020/12/14 08:02:49;;;;;;;8.27;3.60;;;7.80;99.90;;;;;;4951801;28;20363;-90
2020/12/14 08:05:20;;;;;;;4.87;3.00;;;7.80;99.90;;;;;;4944762;28;20972;-89
2020/12/14 08:08:02;;;;;;;4.73;3.07;;;7.80;99.90;;;;;;4940717;28;20256;-91
2020/12/14 08:10:33;;;;;;;4.63;2.40;;;7.90;99.90;;;;;;4944774;28;20269;-92
2020/12/14 08:13:09;;;;;;;4.77;2.63;;;8.00;99.90;;;;;;4928604;29;20233;-93
2020/12/14 08:15:36;;;;;;;4.00;2.43;;;8.00;99.90;;;;;;4948670;28;20576;-92
2020/12/14 08:18:05;;;;;;;1.70;1.30;;;8.00;99.90;;;;;;4960370;28;20198;-92
2020/12/14 08:20:32;;;;;;;3.27;2.63;;;8.00;99.90;;;;;;4943015;28;20216;-92
2020/12/14 08:22:59;;;;;;;4.93;3.43;;;8.10;99.90;;;;;;4963517;28;20220;-93
2020/12/14 08:25:34;;;;;;;3.37;3.07;;;8.10;99.90;;;;;;4966175;28;20553;-93
2020/12/14 08:28:02;;;;;;;4.53;3.30;;;8.10;99.90;;;;;;4926676;28;20216;-93
2020/12/14 08:30:28;;;;;;;3.43;2.63;;;8.10;99.90;;;;;;4959272;28;20201;-92
2020/12/14 08:33:09;;;;;;;7.60;3.23;;;8.20;99.90;;;;;;4950410;28;20203;-92
2020/12/14 08:35:39;;;;;;;5.23;3.67;;;8.20;99.90;;;;;;4958294;28;20237;-93
2020/12/14 08:38:08;;;;;;;3.93;3.27;;;8.30;99.90;;;;;;4958485;28;20220;-91
2020/12/14 08:40:35;;;;;;;3.57;3.07;;;8.30;99.90;;;;;;4961362;28;20311;-92
2020/12/14 08:43:12;;;;;;;5.03;2.30;;;8.30;99.90;;;;;;4959717;28;20331;-94
2020/12/14 08:46:05;;;;;;;2.77;2.50;;;8.40;99.90;;;;;;4939660;28;20228;-92
2020/12/14 08:48:42;;;;;;;2.63;2.33;;;8.40;99.90;;;;;;4924342;29;20228;-90
2020/12/14 08:51:28;;;;;;;2.80;2.60;;;8.50;99.90;;;;;;4923442;29;20197;-90
2020/12/14 08:54:19;;;;;;;3.37;2.90;;;8.40;99.90;;;;;;4942610;28;20220;-89
2020/12/14 08:56:46;;;;;;;3.43;3.13;;;8.50;99.90;;;;;;4955469;28;20225;-90
2020/12/14 08:59:17;;;;;;;3.93;3.27;;;8.50;99.90;;;;;;4958753;28;20251;-90
2020/12/14 09:02:04;;;;;;;2.87;2.40;;;8.50;99.90;;;;;;4944657;28;20251;-92
2020/12/14 09:04:32;;;;;;;3.93;2.80;;;8.60;99.90;;;;;;4964239;28;21339;-92
2020/12/14 09:06:58;;;;;;;2.80;1.97;;;8.60;99.90;;;;;;4988475;28;20216;-93
2020/12/14 09:09:35;;;;;;;4.00;2.47;;;8.60;99.90;;;;;;4965002;28;20199;-91
2020/12/14 09:12:08;;;;;;;3.60;2.90;;;8.60;99.90;;;;;;4966736;28;20982;-91
2020/12/14 09:14:34;;;;;;;5.10;2.93;;;8.70;99.90;;;;;;4966150;28;20231;-91
2020/12/14 09:17:05;;;;;;;5.00;3.60;;;8.70;99.90;;;;;;4965043;28;20717;-91
2020/12/14 09:19:35;;;;;;;3.47;2.77;;;8.70;99.90;;;;;;4965262;28;20311;-92
2020/12/14 09:22:02;;;;;;;5.60;3.70;;;8.70;99.90;;;;;;4963820;28;20216;-91
2020/12/14 09:24:32;;;;;;;5.20;3.57;;;8.80;99.90;;;;;;4964618;28;20597;-91
2020/12/14 09:27:07;;;;;;;9.93;4.50;;;8.80;99.90;;;;;;4983266;28;20701;-92
2020/12/14 09:29:35;;;;;;;2.30;2.10;;;8.80;99.90;;;;;;4980362;28;20239;-92
2020/12/14 09:32:01;;;;;;;6.37;4.47;;;8.80;99.90;;;;;;4965412;28;20281;-91
2020/12/14 09:34:27;;;;;;;5.47;4.53;;;8.90;99.90;;;;;;4963781;28;20227;-92
2020/12/14 09:36:58;;;;;;;5.57;3.70;;;8.90;99.90;;;;;;4944316;28;20227;-91
2020/12/14 09:39:27;;;;;;;4.20;3.77;;;9.00;99.90;;;;;;4979527;28;20234;-90
2020/12/14 09:41:55;;;;;;;4.07;3.60;;;9.00;99.90;;;;;;4983556;28;20180;-91
2020/12/14 09:44:24;;;;;;;5.53;3.80;;;9.00;99.90;;;;;;4965451;28;20266;-90
2020/12/14 09:46:50;;;;;;;7.03;4.57;;;9.00;99.90;;;;;;4962851;28;20267;-90
2020/12/14 09:49:16;;;;;;;8.07;4.97;;;9.10;99.90;;;;;;4981714;28;20216;-90
2020/12/14 09:51:42;;;;;;;3.13;2.93;;;9.10;99.90;;;;;;4965886;28;20343;-91
2020/12/14 09:54:08;;;;;;;2.97;2.37;;;9.10;99.90;;;;;;4966635;28;20960;-91
2020/12/14 09:56:35;;;;;;;4.70;3.40;;;9.20;99.90;;;;;;4990728;28;20258;-91
2020/12/14 09:59:02;;;;;;;4.87;3.73;;;9.30;99.90;;;;;;4965233;28;20219;-96
2020/12/14 10:01:31;;;;;;;6.10;3.43;;;9.30;99.90;;;;;;4964849;28;20216;-93
2020/12/14 10:03:57;;;;;;;7.13;4.60;;;9.30;99.90;;;;;;4964527;28;20242;-94
2020/12/14 10:06:23;;;;;;;7.87;5.13;;;9.40;99.90;;;;;;4963440;28;20558;-91
2020/12/14 10:08:49;;;;;;;3.03;2.73;;;9.40;99.90;;;;;;4981968;28;20232;-91
2020/12/14 10:11:15;;;;;;;5.30;3.43;;;9.50;99.90;;;;;;4964309;28;20220;-92
2020/12/14 10:13:44;;;;;;;5.67;4.57;;;9.50;99.90;;;;;;4963389;28;20310;-90
2020/12/14 10:16:12;;;;;;;7.77;5.03;;;9.50;99.90;;;;;;4962694;28;20235;-93
2020/12/14 10:18:41;;;;;;;5.70;3.77;;;9.60;99.90;;;;;;4963405;28;20220;-91
2020/12/14 10:21:07;;;;;;;5.03;4.03;;;9.60;99.90;;;;;;4982390;28;20187;-92
2020/12/14 10:23:36;;;;;;;4.93;3.93;;;9.70;99.90;;;;;;4972889;28;21769;-90
2020/12/14 10:26:02;;;;;;;5.67;4.23;;;9.80;99.90;;;;;;4964078;28;20223;-92
2020/12/14 10:28:27;;;;;;;7.30;4.17;;;9.80;99.90;;;;;;4973241;28;20220;-92
2020/12/14 10:30:53;;;;;;;4.13;3.37;;;9.80;99.90;;;;;;4956913;28;20716;-92
2020/12/14 10:33:19;;;;;;;6.63;4.97;;;9.80;99.90;;;;;;4965076;28;20211;-91
2020/12/14 10:35:47;;;;;;;6.57;4.93;;;9.80;99.90;;;;;;4949745;28;20220;-92
2020/12/14 10:38:13;;;;;;;8.53;5.30;;;9.90;99.90;;;;;;4963608;28;20216;-92
2020/12/14 10:40:39;;;;;;;5.47;4.57;;;9.90;99.90;;;;;;4964322;28;20259;-91
2020/12/14 10:43:05;;;;;;;7.60;4.57;;;9.90;99.90;;;;;;4964183;28;20223;-91
2020/12/14 10:45:31;;;;;;;4.63;2.83;;;9.90;99.90;;;;;;4980019;28;20191;-92
2020/12/14 10:47:56;;;;;;;7.73;5.07;;;9.90;99.90;;;;;;4950824;28;20188;-91
2020/12/14 10:50:26;;;;;;;5.97;4.80;;;9.90;99.90;;;;;;4969208;28;20721;-91
2020/12/14 10:52:53;;;;;;;5.03;4.07;;;9.90;99.90;;;;;;4944667;28;20451;-91
2020/12/14 10:55:18;;;;;;;7.47;4.67;;;9.90;99.90;;;;;;4968491;28;20231;-92
2020/12/14 10:57:45;;;;;;;6.47;5.00;;;9.90;99.90;;;;;;4974958;28;20212;-92
2020/12/14 11:00:11;;;;;;;7.80;5.87;;;10.00;99.90;;;;;;4984852;28;20192;-88
2020/12/14 11:02:41;;;;;;;4.53;4.03;;;10.00;99.90;;;;;;4970503;28;20236;-92
2020/12/14 11:05:10;;;;;;;5.60;3.90;;;10.10;99.90;;;;;;4984290;28;20216;-91
2020/12/14 11:07:37;;;;;;;6.03;4.53;;;10.10;99.90;;;;;;4966408;28;20559;-94
2020/12/14 11:10:08;;;;;;;5.77;4.40;;;10.10;99.90;;;;;;4983613;28;20223;-94
2020/12/14 11:12:34;;;;;;;4.93;3.93;;;10.30;99.90;;;;;;4985078;28;20245;-93
2020/12/14 11:15:00;;;;;;;6.60;4.03;;;10.40;99.90;;;;;;4977784;28;20230;-91
2020/12/14 11:17:26;;;;;;;7.67;4.57;;;10.40;99.90;;;;;;4933471;28;20235;-94
2020/12/14 11:19:52;;;;;;;5.47;3.83;;;10.50;99.90;;;;;;4964775;28;20711;-93
2020/12/14 11:22:17;;;;;;;5.20;4.07;;;10.40;99.90;;;;;;4951244;28;20719;-93
2020/12/14 11:24:43;;;;;;;4.07;2.57;;;10.50;99.90;;;;;;4987332;28;20248;-92
2020/12/14 11:27:09;;;;;;;5.20;4.27;;;10.50;99.90;;;;;;4976830;28;20588;-92
2020/12/14 11:29:35;;;;;;;5.53;4.17;;;10.60;99.90;;;;;;4964003;28;21199;-94
2020/12/14 11:32:03;;;;;;;5.80;4.17;;;10.70;99.90;;;;;;4967864;28;20219;-92
2020/12/14 11:34:29;;;;;;;5.47;4.40;;;10.80;99.90;;;;;;4967738;28;20208;-90
2020/12/14 11:36:55;;;;;;;5.93;4.63;;;10.90;99.90;;;;;;4967185;28;21011;-93
2020/12/14 11:39:22;;;;;;;5.00;4.03;;;10.90;99.90;;;;;;4968018;28;20654;-91
2020/12/14 11:41:48;;;;;;;4.43;3.43;;;10.90;99.90;;;;;;4976272;28;20199;-93
2020/12/14 11:44:16;;;;;;;5.03;3.33;;;10.90;99.90;;;;;;4967652;28;20677;-94
2020/12/14 11:46:42;;;;;;;6.20;2.13;;;10.80;99.90;;;;;;4964597;28;20219;-92
2020/12/14 11:49:09;;;;;;;4.33;3.70;;;10.80;99.90;;;;;;4967126;28;20677;-93
2020/12/14 11:51:36;;;;;;;3.37;2.80;;;10.80;99.90;;;;;;4967135;28;20228;-93
2020/12/14 11:54:03;;;;;;;4.17;3.33;;;10.80;99.90;;;;;;4966792;28;20637;-90
2020/12/14 11:56:28;;;;;;;5.40;3.93;;;10.80;99.90;;;;;;4965854;28;20236;-92
2020/12/14 11:58:57;;;;;;;4.30;3.13;;;10.80;99.90;;;;;;4956136;28;20254;-93
2020/12/14 12:01:23;;;;;;;3.63;3.33;;;10.80;99.90;;;;;;4958156;28;20215;-92
2020/12/14 12:03:50;;;;;;;5.87;4.20;;;10.80;99.90;;;;;;4966840;28;20871;-91
2020/12/14 12:06:16;;;;;;;5.37;4.00;;;10.90;99.90;;;;;;4983105;28;20195;-91
2020/12/14 12:08:42;;;;;;;7.80;3.97;;;10.80;99.90;;;;;;4969321;28;20184;-92
2020/12/14 12:11:11;;;;;;;4.07;3.27;;;10.90;99.90;;;;;;4981947;28;20255;-89
2020/12/14 12:13:37;;;;;;;6.40;4.43;;;10.80;99.90;;;;;;4976644;28;20744;-91
2020/12/14 12:16:05;;;;;;;3.77;2.30;;;10.80;99.90;;;;;;4962588;28;20234;-92
2020/12/14 12:18:31;;;;;;;3.60;3.03;;;10.80;99.90;;;;;;4948781;28;23108;-92
2020/12/14 12:20:57;;;;;;;3.90;3.50;;;10.90;99.90;;;;;;4974288;28;20188;-92
2020/12/14 12:23:22;;;;;;;4.13;3.73;;;10.90;99.90;;;;;;4984930;28;20227;-90
2020/12/14 12:25:48;;;;;;;4.97;4.03;;;10.90;99.90;;;;;;4959364;28;20232;-91
2020/12/14 12:28:14;;;;;;;4.10;3.57;;;10.90;99.90;;;;;;4961844;28;20677;-91
2020/12/14 12:30:40;;;;;;;3.77;2.90;;;10.90;99.90;;;;;;4963356;28;20220;-92
2020/12/14 12:33:06;;;;;;;2.80;2.60;;;10.80;99.90;;;;;;4961254;28;20655;-90
2020/12/14 12:35:32;;;;;;;4.33;3.17;;;10.80;99.90;;;;;;4958080;28;20953;-92
2020/12/14 12:37:57;;;;;;;2.40;2.20;;;10.80;99.90;;;;;;4979608;28;20242;-92
2020/12/14 12:40:23;;;;;;;5.20;3.33;;;10.90;99.90;;;;;;4971094;28;20227;-92
2020/12/14 12:42:52;;;;;;;3.47;2.93;;;10.80;99.90;;;;;;4974114;28;20228;-90
2020/12/14 12:45:18;;;;;;;3.53;3.10;;;10.90;99.90;;;;;;4975189;28;20188;-91
2020/12/14 12:47:44;;;;;;;5.03;3.73;;;10.90;99.90;;;;;;4986155;28;20191;-90
2020/12/14 12:50:10;;;;;;;4.70;3.30;;;10.90;99.90;;;;;;4957175;28;20216;-90
2020/12/14 12:52:36;;;;;;;2.73;2.33;;;10.90;99.90;;;;;;4973120;28;20625;-90
2020/12/14 12:55:02;;;;;;;7.67;4.43;;;10.80;99.90;;;;;;4974137;28;20232;-90
2020/12/14 12:57:28;;;;;;;5.03;3.30;;;10.80;99.90;;;;;;4979633;28;20184;-89
2020/12/14 12:59:54;;;;;;;5.53;2.27;;;10.80;99.90;;;;;;4980901;28;20200;-90
2020/12/14 13:02:20;;;;;;;3.37;2.93;;;10.80;99.90;;;;;;4971415;28;20236;-91